sensor_id;sensor_type;location;lat;lon;timestamp;temperature;humidity
27747;DHT22;15138;51.012;4.692;2022-12-07T00:02:20;6.10;99.90
27747;DHT22;15138;51.012;4.692;2022-12-07T00:04:51;6.10;99.90
27747;DHT22;15138;51.012;4.692;2022-12-07T00:07:18;6.10;99.90
27747;DHT22;15138;51.012;4.692;2022-12-07T00:09:53;6.20;99.90
27747;DHT22;15138;51.012;4.692;2022-12-07T00:12:21;5.60;99.90
27747;DHT22;15138;51.012;4.692;2022-12-07T00:14:48;6.10;99.90
27747;DHT22;15138;51.012;4.692;2022-12-07T00:17:16;6.00;99.90
27747;DHT22;15138;51.012;4.692;2022-12-07T00:19:44;5.90;99.90
27747;DHT22;15138;51.012;4.692;2022-12-07T00:22:13;5.90;99.90
27747;DHT22;15138;51.012;4.692;2022-12-07T00:24:41;5.70;99.90
27747;DHT22;15138;51.012;4.692;2022-12-07T00:27:09;6.00;99.90
27747;DHT22;15138;51.012;4.692;2022-12-07T00:29:39;5.80;99.90
27747;DHT22;15138;51.012;4.692;2022-12-07T00:32:07;7.10;99.90
27747;DHT22;15138;51.012;4.692;2022-12-07T00:34:35;5.70;99.90
27747;DHT22;15138;51.012;4.692;2022-12-07T00:37:03;5.60;99.90
27747;DHT22;15138;51.012;4.692;2022-12-07T00:39:32;5.80;99.90
27747;DHT22;15138;51.012;4.692;2022-12-07T00:42:00;5.90;99.90
27747;DHT22;15138;51.012;4.692;2022-12-07T00:44:28;5.90;99.90
27747;DHT22;15138;51.012;4.692;2022-12-07T00:46:55;5.80;99.90
27747;DHT22;15138;51.012;4.692;2022-12-07T00:49:23;5.50;99.90
27747;DHT22;15138;51.012;4.692;2022-12-07T00:51:51;5.60;99.90
27747;DHT22;15138;51.012;4.692;2022-12-07T00:54:19;5.60;99.90
27747;DHT22;15138;51.012;4.692;2022-12-07T00:56:48;5.50;99.90
27747;DHT22;15138;51.012;4.692;2022-12-07T00:59:16;5.50;99.90
27747;DHT22;15138;51.012;4.692;2022-12-07T01:01:44;5.80;99.90
27747;DHT22;15138;51.012;4.692;2022-12-07T01:04:12;5.70;99.90
27747;DHT22;15138;51.012;4.692;2022-12-07T01:06:40;5.20;99.90
27747;DHT22;15138;51.012;4.692;2022-12-07T01:09:08;5.80;99.90
27747;DHT22;15138;51.012;4.692;2022-12-07T01:11:35;5.70;99.90
27747;DHT22;15138;51.012;4.692;2022-12-07T01:14:05;5.90;99.90
27747;DHT22;15138;51.012;4.692;2022-12-07T01:16:33;5.70;99.90
27747;DHT22;15138;51.012;4.692;2022-12-07T01:19:01;4.70;99.90
27747;DHT22;15138;51.012;4.692;2022-12-07T01:21:31;5.90;99.90
27747;DHT22;15138;51.012;4.692;2022-12-07T01:24:01;5.60;99.90
27747;DHT22;15138;51.012;4.692;2022-12-07T01:26:29;5.70;99.90
27747;DHT22;15138;51.012;4.692;2022-12-07T01:28:57;5.10;99.90
27747;DHT22;15138;51.012;4.692;2022-12-07T01:31:28;5.60;99.90
27747;DHT22;15138;51.012;4.692;2022-12-07T01:33:57;5.50;99.90
27747;DHT22;15138;51.012;4.692;2022-12-07T01:36:26;5.70;99.90
27747;DHT22;15138;51.012;4.692;2022-12-07T01:38:55;5.50;99.90
27747;DHT22;15138;51.012;4.692;2022-12-07T01:41:24;5.80;99.90
27747;DHT22;15138;51.012;4.692;2022-12-07T01:44:09;5.70;99.90
27747;DHT22;15138;51.012;4.692;2022-12-07T01:46:39;5.70;99.90
27747;DHT22;15138;51.012;4.692;2022-12-07T01:49:08;5.90;99.90
27747;DHT22;15138;51.012;4.692;2022-12-07T01:51:37;5.70;99.90
27747;DHT22;15138;51.012;4.692;2022-12-07T01:54:06;5.50;99.90
27747;DHT22;15138;51.012;4.692;2022-12-07T01:56:34;5.70;99.90
27747;DHT22;15138;51.012;4.692;2022-12-07T01:59:03;5.60;99.90
27747;DHT22;15138;51.012;4.692;2022-12-07T02:01:31;5.80;99.90
27747;DHT22;15138;51.012;4.692;2022-12-07T02:04:00;5.60;99.90
27747;DHT22;15138;51.012;4.692;2022-12-07T02:06:29;5.60;99.90
27747;DHT22;15138;51.012;4.692;2022-12-07T02:08:57;5.60;99.90
27747;DHT22;15138;51.012;4.692;2022-12-07T02:11:25;5.50;99.90
27747;DHT22;15138;51.012;4.692;2022-12-07T02:16:25;5.20;99.90
27747;DHT22;15138;51.012;4.692;2022-12-07T02:21:28;5.20;99.90
27747;DHT22;15138;51.012;4.692;2022-12-07T02:24:05;5.60;99.90
27747;DHT22;15138;51.012;4.692;2022-12-07T02:26:49;5.40;99.90
27747;DHT22;15138;51.012;4.692;2022-12-07T02:29:23;5.40;99.90
27747;DHT22;15138;51.012;4.692;2022-12-07T02:31:53;5.00;99.90
27747;DHT22;15138;51.012;4.692;2022-12-07T02:34:25;5.30;99.90
27747;DHT22;15138;51.012;4.692;2022-12-07T02:36:56;5.50;99.90
27747;DHT22;15138;51.012;4.692;2022-12-07T02:39:27;5.60;99.90
27747;DHT22;15138;51.012;4.692;2022-12-07T02:41:56;5.50;99.90
27747;DHT22;15138;51.012;4.692;2022-12-07T02:44:27;5.40;99.90
27747;DHT22;15138;51.012;4.692;2022-12-07T02:46:57;5.60;99.90
27747;DHT22;15138;51.012;4.692;2022-12-07T02:49:26;5.50;99.90
27747;DHT22;15138;51.012;4.692;2022-12-07T02:51:55;5.50;99.90
27747;DHT22;15138;51.012;4.692;2022-12-07T02:54:23;5.50;99.90
27747;DHT22;15138;51.012;4.692;2022-12-07T02:56:51;5.40;99.90
27747;DHT22;15138;51.012;4.692;2022-12-07T02:59:24;5.40;99.90
27747;DHT22;15138;51.012;4.692;2022-12-07T03:01:55;5.60;99.90
27747;DHT22;15138;51.012;4.692;2022-12-07T03:04:33;4.90;99.90
27747;DHT22;15138;51.012;4.692;2022-12-07T03:07:07;5.30;99.90
27747;DHT22;15138;51.012;4.692;2022-12-07T03:09:37;5.40;99.90
27747;DHT22;15138;51.012;4.692;2022-12-07T03:12:09;5.40;99.90
27747;DHT22;15138;51.012;4.692;2022-12-07T03:14:41;5.60;99.90
27747;DHT22;15138;51.012;4.692;2022-12-07T03:17:15;5.60;99.90
27747;DHT22;15138;51.012;4.692;2022-12-07T03:19:45;5.00;99.90
27747;DHT22;15138;51.012;4.692;2022-12-07T03:22:14;5.20;99.90
27747;DHT22;15138;51.012;4.692;2022-12-07T03:24:43;5.50;99.90
27747;DHT22;15138;51.012;4.692;2022-12-07T03:27:13;5.40;99.90
27747;DHT22;15138;51.012;4.692;2022-12-07T03:29:44;5.20;99.90
27747;DHT22;15138;51.012;4.692;2022-12-07T03:32:17;5.60;99.90
27747;DHT22;15138;51.012;4.692;2022-12-07T03:34:47;5.70;99.90
27747;DHT22;15138;51.012;4.692;2022-12-07T03:37:19;5.50;99.90
27747;DHT22;15138;51.012;4.692;2022-12-07T03:39:49;5.30;99.90
27747;DHT22;15138;51.012;4.692;2022-12-07T03:42:22;5.50;99.90
27747;DHT22;15138;51.012;4.692;2022-12-07T03:44:51;5.30;99.90
27747;DHT22;15138;51.012;4.692;2022-12-07T03:47:20;5.20;99.90
27747;DHT22;15138;51.012;4.692;2022-12-07T03:49:51;5.20;99.90
27747;DHT22;15138;51.012;4.692;2022-12-07T03:52:22;5.20;99.90
27747;DHT22;15138;51.012;4.692;2022-12-07T03:54:53;5.10;99.90
27747;DHT22;15138;51.012;4.692;2022-12-07T03:57:24;5.00;99.90
27747;DHT22;15138;51.012;4.692;2022-12-07T03:59:53;4.90;99.90
27747;DHT22;15138;51.012;4.692;2022-12-07T04:02:23;4.90;99.90
27747;DHT22;15138;51.012;4.692;2022-12-07T04:04:52;4.80;99.90
27747;DHT22;15138;51.012;4.692;2022-12-07T04:07:19;4.80;99.90
27747;DHT22;15138;51.012;4.692;2022-12-07T04:09:47;4.80;99.90
27747;DHT22;15138;51.012;4.692;2022-12-07T04:12:15;4.90;99.90
27747;DHT22;15138;51.012;4.692;2022-12-07T04:14:43;4.80;99.90
27747;DHT22;15138;51.012;4.692;2022-12-07T04:17:11;4.70;99.90
27747;DHT22;15138;51.012;4.692;2022-12-07T04:19:40;4.60;99.90
27747;DHT22;15138;51.012;4.692;2022-12-07T04:22:08;4.60;99.90
27747;DHT22;15138;51.012;4.692;2022-12-07T04:24:36;4.50;99.90
27747;DHT22;15138;51.012;4.692;2022-12-07T04:27:04;4.50;99.90
27747;DHT22;15138;51.012;4.692;2022-12-07T04:29:32;4.40;99.90
27747;DHT22;15138;51.012;4.692;2022-12-07T04:32:00;4.50;99.90
27747;DHT22;15138;51.012;4.692;2022-12-07T04:34:28;4.40;99.90
27747;DHT22;15138;51.012;4.692;2022-12-07T04:36:57;4.50;99.90
27747;DHT22;15138;51.012;4.692;2022-12-07T04:39:26;4.50;99.90
27747;DHT22;15138;51.012;4.692;2022-12-07T04:41:54;4.40;99.90
27747;DHT22;15138;51.012;4.692;2022-12-07T04:44:23;4.30;99.90
27747;DHT22;15138;51.012;4.692;2022-12-07T04:46:51;4.30;99.90
27747;DHT22;15138;51.012;4.692;2022-12-07T04:49:20;4.20;99.90
27747;DHT22;15138;51.012;4.692;2022-12-07T04:51:48;4.20;99.90
27747;DHT22;15138;51.012;4.692;2022-12-07T04:54:17;4.10;99.90
27747;DHT22;15138;51.012;4.692;2022-12-07T04:56:45;4.10;99.90
27747;DHT22;15138;51.012;4.692;2022-12-07T04:59:14;4.20;99.90
27747;DHT22;15138;51.012;4.692;2022-12-07T05:01:42;4.20;99.90
27747;DHT22;15138;51.012;4.692;2022-12-07T05:04:10;4.20;94.10
27747;DHT22;15138;51.012;4.692;2022-12-07T05:06:38;4.20;90.90
27747;DHT22;15138;51.012;4.692;2022-12-07T05:09:06;4.30;50.50
27747;DHT22;15138;51.012;4.692;2022-12-07T05:11:36;4.20;97.40
27747;DHT22;15138;51.012;4.692;2022-12-07T05:14:09;4.20;99.90
27747;DHT22;15138;51.012;4.692;2022-12-07T05:16:37;4.20;99.90
27747;DHT22;15138;51.012;4.692;2022-12-07T05:19:05;4.20;99.90
27747;DHT22;15138;51.012;4.692;2022-12-07T05:21:33;4.10;99.90
27747;DHT22;15138;51.012;4.692;2022-12-07T05:24:01;4.10;99.90
27747;DHT22;15138;51.012;4.692;2022-12-07T05:26:29;4.10;99.90
27747;DHT22;15138;51.012;4.692;2022-12-07T05:28:58;4.10;99.90
27747;DHT22;15138;51.012;4.692;2022-12-07T05:31:26;4.10;99.90
27747;DHT22;15138;51.012;4.692;2022-12-07T05:33:54;4.20;99.90
27747;DHT22;15138;51.012;4.692;2022-12-07T05:36:22;4.60;99.90
27747;DHT22;15138;51.012;4.692;2022-12-07T05:38:50;4.20;99.90
27747;DHT22;15138;51.012;4.692;2022-12-07T05:41:18;4.20;99.90
27747;DHT22;15138;51.012;4.692;2022-12-07T05:44:05;4.20;99.90
27747;DHT22;15138;51.012;4.692;2022-12-07T05:46:33;4.20;99.90
27747;DHT22;15138;51.012;4.692;2022-12-07T05:49:01;4.10;99.90
27747;DHT22;15138;51.012;4.692;2022-12-07T05:51:29;4.10;99.90
27747;DHT22;15138;51.012;4.692;2022-12-07T05:53:57;4.10;99.90
27747;DHT22;15138;51.012;4.692;2022-12-07T05:56:25;4.10;99.90
27747;DHT22;15138;51.012;4.692;2022-12-07T05:58:54;4.10;99.90
27747;DHT22;15138;51.012;4.692;2022-12-07T06:01:40;4.10;99.90
27747;DHT22;15138;51.012;4.692;2022-12-07T06:04:08;4.10;99.90
27747;DHT22;15138;51.012;4.692;2022-12-07T06:06:36;4.10;99.90
27747;DHT22;15138;51.012;4.692;2022-12-07T06:09:04;4.10;99.90
27747;DHT22;15138;51.012;4.692;2022-12-07T06:11:32;4.10;99.90
27747;DHT22;15138;51.012;4.692;2022-12-07T06:14:18;4.10;99.90
27747;DHT22;15138;51.012;4.692;2022-12-07T06:16:47;4.10;99.90
27747;DHT22;15138;51.012;4.692;2022-12-07T06:19:15;4.10;99.90
27747;DHT22;15138;51.012;4.692;2022-12-07T06:21:43;4.10;99.90
27747;DHT22;15138;51.012;4.692;2022-12-07T06:24:11;4.20;99.90
27747;DHT22;15138;51.012;4.692;2022-12-07T06:26:39;4.10;99.90
27747;DHT22;15138;51.012;4.692;2022-12-07T06:29:07;4.10;99.90
27747;DHT22;15138;51.012;4.692;2022-12-07T06:31:35;4.10;99.90
27747;DHT22;15138;51.012;4.692;2022-12-07T06:34:06;4.10;99.90
27747;DHT22;15138;51.012;4.692;2022-12-07T06:36:34;4.20;99.90
27747;DHT22;15138;51.012;4.692;2022-12-07T06:39:02;4.20;99.90
27747;DHT22;15138;51.012;4.692;2022-12-07T06:41:30;4.20;99.90
27747;DHT22;15138;51.012;4.692;2022-12-07T06:43:58;4.50;99.90
27747;DHT22;15138;51.012;4.692;2022-12-07T06:46:26;4.20;99.90
27747;DHT22;15138;51.012;4.692;2022-12-07T06:48:54;4.20;99.90
27747;DHT22;15138;51.012;4.692;2022-12-07T06:51:23;4.20;99.90
27747;DHT22;15138;51.012;4.692;2022-12-07T06:53:51;4.20;99.90
27747;DHT22;15138;51.012;4.692;2022-12-07T06:56:19;4.30;99.90
27747;DHT22;15138;51.012;4.692;2022-12-07T06:58:47;4.30;99.90
27747;DHT22;15138;51.012;4.692;2022-12-07T07:01:15;4.30;99.90
27747;DHT22;15138;51.012;4.692;2022-12-07T07:03:44;4.30;99.90
27747;DHT22;15138;51.012;4.692;2022-12-07T07:06:12;4.40;99.90
27747;DHT22;15138;51.012;4.692;2022-12-07T07:08:42;4.30;99.90
27747;DHT22;15138;51.012;4.692;2022-12-07T07:11:09;4.30;99.90
27747;DHT22;15138;51.012;4.692;2022-12-07T07:13:37;4.40;99.90
27747;DHT22;15138;51.012;4.692;2022-12-07T07:16:06;4.40;99.90
27747;DHT22;15138;51.012;4.692;2022-12-07T07:18:34;4.40;99.90
27747;DHT22;15138;51.012;4.692;2022-12-07T07:21:02;4.40;99.90
27747;DHT22;15138;51.012;4.692;2022-12-07T07:23:30;4.40;99.90
27747;DHT22;15138;51.012;4.692;2022-12-07T07:25:59;4.40;99.90
27747;DHT22;15138;51.012;4.692;2022-12-07T07:28:27;4.40;99.90
27747;DHT22;15138;51.012;4.692;2022-12-07T07:30:55;4.40;99.90
27747;DHT22;15138;51.012;4.692;2022-12-07T07:33:23;4.30;99.90
27747;DHT22;15138;51.012;4.692;2022-12-07T07:35:51;4.30;99.90
27747;DHT22;15138;51.012;4.692;2022-12-07T07:38:19;4.30;99.90
27747;DHT22;15138;51.012;4.692;2022-12-07T07:40:47;4.20;99.90
27747;DHT22;15138;51.012;4.692;2022-12-07T07:43:16;4.20;99.90
27747;DHT22;15138;51.012;4.692;2022-12-07T07:45:44;4.20;99.90
27747;DHT22;15138;51.012;4.692;2022-12-07T07:48:12;4.20;99.90
27747;DHT22;15138;51.012;4.692;2022-12-07T07:50:40;4.50;99.90
27747;DHT22;15138;51.012;4.692;2022-12-07T07:53:08;4.10;99.90
27747;DHT22;15138;51.012;4.692;2022-12-07T07:55:36;4.20;99.90
27747;DHT22;15138;51.012;4.692;2022-12-07T07:58:03;4.10;99.90
27747;DHT22;15138;51.012;4.692;2022-12-07T08:00:33;4.20;99.90
27747;DHT22;15138;51.012;4.692;2022-12-07T08:03:01;4.20;99.90
27747;DHT22;15138;51.012;4.692;2022-12-07T08:05:29;4.30;99.90
27747;DHT22;15138;51.012;4.692;2022-12-07T08:07:57;4.50;99.90
27747;DHT22;15138;51.012;4.692;2022-12-07T08:10:25;4.70;99.90
27747;DHT22;15138;51.012;4.692;2022-12-07T08:15:42;5.10;99.90
27747;DHT22;15138;51.012;4.692;2022-12-07T08:18:10;5.10;99.90
27747;DHT22;15138;51.012;4.692;2022-12-07T08:20:39;5.00;99.90
27747;DHT22;15138;51.012;4.692;2022-12-07T08:23:07;5.00;99.90
27747;DHT22;15138;51.012;4.692;2022-12-07T08:25:35;4.90;99.90
27747;DHT22;15138;51.012;4.692;2022-12-07T08:28:03;5.00;99.90
27747;DHT22;15138;51.012;4.692;2022-12-07T08:30:31;5.00;99.90
27747;DHT22;15138;51.012;4.692;2022-12-07T08:33:00;5.00;99.90
27747;DHT22;15138;51.012;4.692;2022-12-07T08:35:28;5.00;99.90
27747;DHT22;15138;51.012;4.692;2022-12-07T08:37:56;5.10;99.90
27747;DHT22;15138;51.012;4.692;2022-12-07T08:40:24;5.10;99.90
27747;DHT22;15138;51.012;4.692;2022-12-07T08:42:52;5.20;99.90
27747;DHT22;15138;51.012;4.692;2022-12-07T08:45:21;5.20;99.90
27747;DHT22;15138;51.012;4.692;2022-12-07T08:47:54;5.30;99.90
27747;DHT22;15138;51.012;4.692;2022-12-07T08:50:24;5.70;99.90
27747;DHT22;15138;51.012;4.692;2022-12-07T08:52:52;5.50;99.90
27747;DHT22;15138;51.012;4.692;2022-12-07T08:55:21;5.80;99.90
27747;DHT22;15138;51.012;4.692;2022-12-07T08:57:49;6.00;99.90
27747;DHT22;15138;51.012;4.692;2022-12-07T09:00:18;6.50;99.90
27747;DHT22;15138;51.012;4.692;2022-12-07T09:02:46;6.70;99.90
27747;DHT22;15138;51.012;4.692;2022-12-07T09:05:14;6.90;99.90
27747;DHT22;15138;51.012;4.692;2022-12-07T09:07:44;7.20;99.90
27747;DHT22;15138;51.012;4.692;2022-12-07T09:10:13;7.60;99.90
27747;DHT22;15138;51.012;4.692;2022-12-07T09:12:41;8.00;99.90
27747;DHT22;15138;51.012;4.692;2022-12-07T09:15:09;8.30;99.90
27747;DHT22;15138;51.012;4.692;2022-12-07T09:20:05;8.40;99.90
27747;DHT22;15138;51.012;4.692;2022-12-07T09:25:04;9.50;99.90
27747;DHT22;15138;51.012;4.692;2022-12-07T09:27:32;10.00;97.40
27747;DHT22;15138;51.012;4.692;2022-12-07T09:30:00;10.40;99.90
27747;DHT22;15138;51.012;4.692;2022-12-07T09:32:28;10.80;1.00
27747;DHT22;15138;51.012;4.692;2022-12-07T09:34:56;11.10;1.00
27747;DHT22;15138;51.012;4.692;2022-12-07T09:37:24;11.30;1.00
27747;DHT22;15138;51.012;4.692;2022-12-07T09:39:52;11.40;99.90
27747;DHT22;15138;51.012;4.692;2022-12-07T09:42:26;11.20;99.90
27747;DHT22;15138;51.012;4.692;2022-12-07T09:44:55;9.70;1.00
27747;DHT22;15138;51.012;4.692;2022-12-07T09:47:23;10.90;99.90
27747;DHT22;15138;51.012;4.692;2022-12-07T09:49:51;10.10;1.00
27747;DHT22;15138;51.012;4.692;2022-12-07T09:52:19;10.70;99.90
27747;DHT22;15138;51.012;4.692;2022-12-07T09:54:49;10.70;1.00
27747;DHT22;15138;51.012;4.692;2022-12-07T09:57:27;10.60;1.00
27747;DHT22;15138;51.012;4.692;2022-12-07T09:59:57;10.30;41.40
27747;DHT22;15138;51.012;4.692;2022-12-07T10:02:34;10.00;99.90
27747;DHT22;15138;51.012;4.692;2022-12-07T10:05:03;11.00;63.90
27747;DHT22;15138;51.012;4.692;2022-12-07T10:07:32;11.30;99.90
27747;DHT22;15138;51.012;4.692;2022-12-07T10:10:01;11.40;99.90
27747;DHT22;15138;51.012;4.692;2022-12-07T10:12:29;11.40;99.90
27747;DHT22;15138;51.012;4.692;2022-12-07T10:15:00;11.20;5.00
27747;DHT22;15138;51.012;4.692;2022-12-07T10:17:35;11.10;1.00
27747;DHT22;15138;51.012;4.692;2022-12-07T10:20:20;11.20;99.90
27747;DHT22;15138;51.012;4.692;2022-12-07T10:22:59;11.10;99.90
27747;DHT22;15138;51.012;4.692;2022-12-07T10:25:28;11.00;99.90
27747;DHT22;15138;51.012;4.692;2022-12-07T10:28:02;10.70;98.60
27747;DHT22;15138;51.012;4.692;2022-12-07T10:30:46;10.60;99.90
27747;DHT22;15138;51.012;4.692;2022-12-07T10:33:21;10.70;99.90
27747;DHT22;15138;51.012;4.692;2022-12-07T10:35:54;10.60;99.90
27747;DHT22;15138;51.012;4.692;2022-12-07T10:38:22;10.50;1.00
27747;DHT22;15138;51.012;4.692;2022-12-07T10:41:02;10.60;99.90
27747;DHT22;15138;51.012;4.692;2022-12-07T10:43:30;10.20;99.90
27747;DHT22;15138;51.012;4.692;2022-12-07T10:48:47;10.10;27.90
27747;DHT22;15138;51.012;4.692;2022-12-07T10:51:19;9.80;1.00
27747;DHT22;15138;51.012;4.692;2022-12-07T10:53:52;9.80;1.00
27747;DHT22;15138;51.012;4.692;2022-12-07T10:56:34;9.80;99.90
27747;DHT22;15138;51.012;4.692;2022-12-07T10:59:16;9.70;99.90
27747;DHT22;15138;51.012;4.692;2022-12-07T11:01:47;9.70;1.00
27747;DHT22;15138;51.012;4.692;2022-12-07T11:04:23;9.60;1.00
27747;DHT22;15138;51.012;4.692;2022-12-07T11:06:54;9.70;51.40
27747;DHT22;15138;51.012;4.692;2022-12-07T11:09:38;9.80;1.00
27747;DHT22;15138;51.012;4.692;2022-12-07T11:12:32;10.20;1.00
27747;DHT22;15138;51.012;4.692;2022-12-07T11:15:07;10.70;1.00
27747;DHT22;15138;51.012;4.692;2022-12-07T11:17:41;10.60;99.90
27747;DHT22;15138;51.012;4.692;2022-12-07T11:20:15;10.70;1.00
27747;DHT22;15138;51.012;4.692;2022-12-07T11:22:46;10.50;70.30
27747;DHT22;15138;51.012;4.692;2022-12-07T11:25:20;10.80;99.90
27747;DHT22;15138;51.012;4.692;2022-12-07T11:27:58;10.70;99.90
27747;DHT22;15138;51.012;4.692;2022-12-07T11:30:31;10.60;61.70
27747;DHT22;15138;51.012;4.692;2022-12-07T11:33:07;10.60;1.00
27747;DHT22;15138;51.012;4.692;2022-12-07T11:35:42;10.80;1.00
27747;DHT22;15138;51.012;4.692;2022-12-07T11:38:14;10.80;35.70
27747;DHT22;15138;51.012;4.692;2022-12-07T11:40:45;9.80;99.90
27747;DHT22;15138;51.012;4.692;2022-12-07T11:43:17;10.70;99.90
27747;DHT22;15138;51.012;4.692;2022-12-07T11:45:46;10.70;1.00
27747;DHT22;15138;51.012;4.692;2022-12-07T11:48:15;10.50;99.90
27747;DHT22;15138;51.012;4.692;2022-12-07T11:50:47;10.50;99.90
27747;DHT22;15138;51.012;4.692;2022-12-07T11:53:16;10.50;99.90
27747;DHT22;15138;51.012;4.692;2022-12-07T11:55:47;10.60;99.90
27747;DHT22;15138;51.012;4.692;2022-12-07T11:58:30;10.30;99.90
27747;DHT22;15138;51.012;4.692;2022-12-07T12:01:13;10.70;99.90
27747;DHT22;15138;51.012;4.692;2022-12-07T12:03:42;10.40;1.00
27747;DHT22;15138;51.012;4.692;2022-12-07T12:06:20;10.50;1.00
27747;DHT22;15138;51.012;4.692;2022-12-07T12:08:49;10.40;1.00
27747;DHT22;15138;51.012;4.692;2022-12-07T12:11:41;10.50;1.00
27747;DHT22;15138;51.012;4.692;2022-12-07T12:20:01;10.50;99.90
27747;DHT22;15138;51.012;4.692;2022-12-07T12:22:34;10.50;99.90
27747;DHT22;15138;51.012;4.692;2022-12-07T12:25:05;10.80;99.90
27747;DHT22;15138;51.012;4.692;2022-12-07T12:27:34;12.00;99.90
27747;DHT22;15138;51.012;4.692;2022-12-07T12:30:29;11.90;1.00
27747;DHT22;15138;51.012;4.692;2022-12-07T12:32:52;12.00;1.00
27747;DHT22;15138;51.012;4.692;2022-12-07T12:35:21;12.00;99.90
27747;DHT22;15138;51.012;4.692;2022-12-07T12:37:53;12.00;98.90
27747;DHT22;15138;51.012;4.692;2022-12-07T12:49:19;11.50;84.30
27747;DHT22;15138;51.012;4.692;2022-12-07T12:51:41;11.00;99.90
27747;DHT22;15138;51.012;4.692;2022-12-07T12:54:12;11.00;1.00
27747;DHT22;15138;51.012;4.692;2022-12-07T12:56:42;11.10;12.90
27747;DHT22;15138;51.012;4.692;2022-12-07T13:02:08;10.70;99.90
27747;DHT22;15138;51.012;4.692;2022-12-07T13:04:39;10.50;93.90
27747;DHT22;15138;51.012;4.692;2022-12-07T13:07:11;10.50;99.90
27747;DHT22;15138;51.012;4.692;2022-12-07T13:09:43;10.30;1.00
27747;DHT22;15138;51.012;4.692;2022-12-07T13:12:12;10.20;39.90
27747;DHT22;15138;51.012;4.692;2022-12-07T13:14:42;10.10;99.90
27747;DHT22;15138;51.012;4.692;2022-12-07T13:17:10;10.10;99.90
27747;DHT22;15138;51.012;4.692;2022-12-07T13:25:12;9.70;1.00
27747;DHT22;15138;51.012;4.692;2022-12-07T13:27:48;9.60;1.00
27747;DHT22;15138;51.012;4.692;2022-12-07T13:30:19;9.60;99.90
27747;DHT22;15138;51.012;4.692;2022-12-07T13:32:51;9.50;99.90
27747;DHT22;15138;51.012;4.692;2022-12-07T13:35:32;9.60;99.90
27747;DHT22;15138;51.012;4.692;2022-12-07T13:38:01;9.70;15.80
27747;DHT22;15138;51.012;4.692;2022-12-07T13:40:31;9.70;99.90
27747;DHT22;15138;51.012;4.692;2022-12-07T13:43:00;9.60;4.50
27747;DHT22;15138;51.012;4.692;2022-12-07T13:45:29;9.50;99.90
27747;DHT22;15138;51.012;4.692;2022-12-07T13:48:18;9.50;99.90
27747;DHT22;15138;51.012;4.692;2022-12-07T13:50:52;9.50;99.90
27747;DHT22;15138;51.012;4.692;2022-12-07T13:53:20;9.40;1.00
27747;DHT22;15138;51.012;4.692;2022-12-07T13:55:49;9.40;99.90
27747;DHT22;15138;51.012;4.692;2022-12-07T13:58:20;9.40;68.90
27747;DHT22;15138;51.012;4.692;2022-12-07T14:00:49;9.30;1.00
27747;DHT22;15138;51.012;4.692;2022-12-07T14:03:25;9.30;99.90
27747;DHT22;15138;51.012;4.692;2022-12-07T14:06:13;9.10;1.00
27747;DHT22;15138;51.012;4.692;2022-12-07T14:08:41;9.10;77.20
27747;DHT22;15138;51.012;4.692;2022-12-07T14:11:12;9.10;99.90
27747;DHT22;15138;51.012;4.692;2022-12-07T14:13:45;9.00;99.90
27747;DHT22;15138;51.012;4.692;2022-12-07T14:16:20;9.00;99.90
27747;DHT22;15138;51.012;4.692;2022-12-07T14:18:49;8.90;99.90
27747;DHT22;15138;51.012;4.692;2022-12-07T14:21:18;8.80;1.00
27747;DHT22;15138;51.012;4.692;2022-12-07T14:23:46;8.70;1.00
27747;DHT22;15138;51.012;4.692;2022-12-07T14:26:30;8.80;1.00
27747;DHT22;15138;51.012;4.692;2022-12-07T14:31:41;8.70;99.90
27747;DHT22;15138;51.012;4.692;2022-12-07T14:34:11;8.50;1.00
27747;DHT22;15138;51.012;4.692;2022-12-07T14:36:39;8.40;1.00
27747;DHT22;15138;51.012;4.692;2022-12-07T14:39:07;8.40;1.00
27747;DHT22;15138;51.012;4.692;2022-12-07T14:41:40;8.50;1.00
27747;DHT22;15138;51.012;4.692;2022-12-07T14:44:21;8.40;99.90
27747;DHT22;15138;51.012;4.692;2022-12-07T14:46:55;8.40;99.90
27747;DHT22;15138;51.012;4.692;2022-12-07T14:49:42;8.30;99.90
27747;DHT22;15138;51.012;4.692;2022-12-07T14:52:11;8.20;1.00
27747;DHT22;15138;51.012;4.692;2022-12-07T14:55:01;8.10;1.00
27747;DHT22;15138;51.012;4.692;2022-12-07T14:57:30;8.00;1.00
27747;DHT22;15138;51.012;4.692;2022-12-07T14:59:58;8.00;1.00
27747;DHT22;15138;51.012;4.692;2022-12-07T15:02:26;8.00;1.00
27747;DHT22;15138;51.012;4.692;2022-12-07T15:04:54;8.00;1.00
27747;DHT22;15138;51.012;4.692;2022-12-07T15:07:22;7.80;1.00
27747;DHT22;15138;51.012;4.692;2022-12-07T15:09:50;7.80;1.00
27747;DHT22;15138;51.012;4.692;2022-12-07T15:12:18;7.80;1.00
27747;DHT22;15138;51.012;4.692;2022-12-07T15:14:47;7.70;1.00
27747;DHT22;15138;51.012;4.692;2022-12-07T15:17:15;7.70;1.00
27747;DHT22;15138;51.012;4.692;2022-12-07T15:19:57;7.50;1.00
27747;DHT22;15138;51.012;4.692;2022-12-07T15:22:24;7.50;1.00
27747;DHT22;15138;51.012;4.692;2022-12-07T15:24:52;7.50;1.00
27747;DHT22;15138;51.012;4.692;2022-12-07T15:27:20;7.50;1.00
27747;DHT22;15138;51.012;4.692;2022-12-07T15:29:49;7.20;1.00
27747;DHT22;15138;51.012;4.692;2022-12-07T15:32:17;7.20;1.00
27747;DHT22;15138;51.012;4.692;2022-12-07T15:34:45;7.10;1.00
27747;DHT22;15138;51.012;4.692;2022-12-07T15:37:13;7.20;1.00
27747;DHT22;15138;51.012;4.692;2022-12-07T15:39:41;7.00;1.00
27747;DHT22;15138;51.012;4.692;2022-12-07T15:42:09;6.90;2.30
27747;DHT22;15138;51.012;4.692;2022-12-07T15:44:37;6.90;13.50
27747;DHT22;15138;51.012;4.692;2022-12-07T15:47:24;6.90;1.00
27747;DHT22;15138;51.012;4.692;2022-12-07T15:49:51;6.90;1.00
27747;DHT22;15138;51.012;4.692;2022-12-07T15:52:21;6.90;1.00
27747;DHT22;15138;51.012;4.692;2022-12-07T15:54:49;6.90;1.00
27747;DHT22;15138;51.012;4.692;2022-12-07T15:57:17;6.90;1.00
27747;DHT22;15138;51.012;4.692;2022-12-07T15:59:50;6.90;1.00
27747;DHT22;15138;51.012;4.692;2022-12-07T16:02:18;6.80;1.00
27747;DHT22;15138;51.012;4.692;2022-12-07T16:04:48;6.90;1.00
27747;DHT22;15138;51.012;4.692;2022-12-07T16:07:16;6.80;1.00
27747;DHT22;15138;51.012;4.692;2022-12-07T16:09:45;6.90;99.90
27747;DHT22;15138;51.012;4.692;2022-12-07T16:12:13;6.80;1.00
27747;DHT22;15138;51.012;4.692;2022-12-07T16:14:41;6.80;1.00
27747;DHT22;15138;51.012;4.692;2022-12-07T16:17:10;6.70;1.00
27747;DHT22;15138;51.012;4.692;2022-12-07T16:19:38;6.60;1.00
27747;DHT22;15138;51.012;4.692;2022-12-07T16:22:07;6.60;49.60
27747;DHT22;15138;51.012;4.692;2022-12-07T16:24:35;6.50;99.90
27747;DHT22;15138;51.012;4.692;2022-12-07T16:27:03;6.80;98.40
27747;DHT22;15138;51.012;4.692;2022-12-07T16:29:31;6.60;99.90
27747;DHT22;15138;51.012;4.692;2022-12-07T16:31:58;6.80;99.90
27747;DHT22;15138;51.012;4.692;2022-12-07T16:34:26;6.50;99.90
27747;DHT22;15138;51.012;4.692;2022-12-07T16:36:54;6.40;74.70
27747;DHT22;15138;51.012;4.692;2022-12-07T16:39:33;6.50;94.40
27747;DHT22;15138;51.012;4.692;2022-12-07T16:42:01;6.40;99.90
27747;DHT22;15138;51.012;4.692;2022-12-07T16:44:29;6.40;99.90
27747;DHT22;15138;51.012;4.692;2022-12-07T16:46:58;6.40;99.90
27747;DHT22;15138;51.012;4.692;2022-12-07T16:49:26;6.70;99.90